createdAt,value
2024-02-15T00:01:06.528Z,10.60
2024-02-15T00:03:33.816Z,21.30
2024-02-15T00:06:01.262Z,11.93
2024-02-15T00:08:30.770Z,9.13
2024-02-15T00:10:57.564Z,8.10
2024-02-15T00:13:24.282Z,12.33
2024-02-15T00:15:51.467Z,11.67
2024-02-15T00:18:18.549Z,15.23
2024-02-15T00:20:49.860Z,26.23
2024-02-15T00:23:17.935Z,21.60
2024-02-15T00:25:46.232Z,21.70
2024-02-15T00:31:07.041Z,14.60
2024-02-15T00:33:34.042Z,11.43
2024-02-15T00:38:53.770Z,8.73
2024-02-15T00:41:21.283Z,9.67
2024-02-15T00:43:50.703Z,8.70
2024-02-15T00:46:30.245Z,4.80
2024-02-15T00:48:57.346Z,10.83
2024-02-15T00:51:24.151Z,14.83
2024-02-15T00:53:50.914Z,11.27
2024-02-15T00:56:18.733Z,15.93
2024-02-15T00:58:51.680Z,7.28
2024-02-15T01:01:18.432Z,8.77
2024-02-15T01:03:45.152Z,4.57
2024-02-15T01:06:11.921Z,4.83
2024-02-15T01:08:38.690Z,3.70
2024-02-15T01:11:05.569Z,3.50
2024-02-15T01:13:32.323Z,3.50
2024-02-15T01:15:59.077Z,9.93
2024-02-15T01:18:28.262Z,8.40
2024-02-15T01:20:55.772Z,8.80
2024-02-15T01:23:23.722Z,9.47
2024-02-15T01:25:50.612Z,10.37
2024-02-15T01:28:17.254Z,9.23
2024-02-15T01:30:44.943Z,8.70
2024-02-15T01:33:13.132Z,10.13
2024-02-15T01:35:40.109Z,9.27
2024-02-15T01:38:07.930Z,10.27
2024-02-15T01:40:34.637Z,9.13
2024-02-15T01:43:01.831Z,9.07
2024-02-15T01:45:29.384Z,9.00
2024-02-15T01:47:57.690Z,8.07
2024-02-15T01:50:26.876Z,8.67
2024-02-15T01:52:56.479Z,8.37
2024-02-15T01:55:23.219Z,7.83
2024-02-15T01:57:50.995Z,7.77
2024-02-15T02:00:19.475Z,11.03
2024-02-15T02:02:48.019Z,8.07
2024-02-15T02:05:14.812Z,8.43
2024-02-15T02:07:42.697Z,6.03
2024-02-15T02:10:13.497Z,6.40
2024-02-15T02:12:42.177Z,6.13
2024-02-15T02:15:12.419Z,6.17
2024-02-15T02:17:41.233Z,6.60
2024-02-15T02:20:12.409Z,4.40
2024-02-15T02:22:42.092Z,4.80
2024-02-15T02:25:09.930Z,13.07
2024-02-15T02:27:37.434Z,9.83
2024-02-15T02:30:07.933Z,6.87
2024-02-15T02:32:38.010Z,6.67
2024-02-15T02:35:07.093Z,6.03
2024-02-15T02:37:37.938Z,8.17
2024-02-15T02:40:09.855Z,9.77
2024-02-15T02:42:57.328Z,7.73
2024-02-15T02:45:24.575Z,8.63
2024-02-15T02:47:54.185Z,4.90
2024-02-15T02:50:26.419Z,4.00
2024-02-15T02:52:55.935Z,3.50
2024-02-15T02:55:23.696Z,8.87
2024-02-15T02:57:50.627Z,6.73
2024-02-15T03:00:18.249Z,7.20
2024-02-15T03:02:46.699Z,7.93
2024-02-15T03:05:14.669Z,7.37
2024-02-15T03:07:41.972Z,8.53
2024-02-15T03:10:12.213Z,7.93
2024-02-15T03:12:40.123Z,7.37
2024-02-15T03:15:13.970Z,8.23
2024-02-15T03:17:45.124Z,8.83
2024-02-15T03:20:18.924Z,10.70
2024-02-15T03:22:45.597Z,9.70
2024-02-15T03:25:13.449Z,8.70
2024-02-15T03:28:00.546Z,8.27
2024-02-15T03:30:28.322Z,8.63
2024-02-15T03:32:57.722Z,7.50
2024-02-15T03:35:29.963Z,9.57
2024-02-15T03:37:57.689Z,8.67
2024-02-15T03:40:28.329Z,8.43
2024-02-15T03:42:55.342Z,9.03
2024-02-15T03:45:26.167Z,7.10
2024-02-15T03:47:54.331Z,14.53
2024-02-15T03:50:23.282Z,13.73
2024-02-15T03:52:51.433Z,16.97
2024-02-15T03:55:18.983Z,19.60
2024-02-15T03:57:47.079Z,19.57
2024-02-15T04:00:22.753Z,22.90
2024-02-15T04:02:51.511Z,17.53
2024-02-15T04:05:20.113Z,15.70
2024-02-15T04:07:47.139Z,19.27
2024-02-15T04:10:13.986Z,19.30
2024-02-15T04:12:43.742Z,19.63
2024-02-15T04:15:15.243Z,20.10
2024-02-15T04:17:43.920Z,19.03
2024-02-15T04:20:13.504Z,20.10
2024-02-15T04:22:43.949Z,17.50
2024-02-15T04:25:12.075Z,12.80
2024-02-15T04:27:39.906Z,18.57
2024-02-15T04:30:09.199Z,25.07
2024-02-15T04:32:38.367Z,23.40
2024-02-15T04:35:08.996Z,26.63
2024-02-15T04:37:38.563Z,31.23
2024-02-15T04:40:11.993Z,30.07
2024-02-15T04:42:42.599Z,30.33
2024-02-15T04:45:11.504Z,21.70
2024-02-15T04:47:41.765Z,17.03
2024-02-15T04:50:08.989Z,22.77
2024-02-15T04:52:36.095Z,28.23
2024-02-15T04:55:06.126Z,24.63
2024-02-15T04:57:38.556Z,27.50
2024-02-15T05:00:12.977Z,22.83
2024-02-15T05:02:42.730Z,26.15
2024-02-15T05:05:14.731Z,30.80
2024-02-15T05:07:44.366Z,32.17
2024-02-15T05:10:11.371Z,32.70
2024-02-15T05:12:41.837Z,24.37
2024-02-15T05:15:12.806Z,30.57
2024-02-15T05:17:42.522Z,28.73
2024-02-15T05:20:13.067Z,30.80
2024-02-15T05:22:43.260Z,37.87
2024-02-15T05:25:10.774Z,31.07
2024-02-15T05:27:37.427Z,56.57
2024-02-15T05:30:08.466Z,38.77
2024-02-15T05:32:42.971Z,42.50
2024-02-15T05:35:12.327Z,48.78
2024-02-15T05:37:39.886Z,52.47
2024-02-15T05:40:08.441Z,52.87
2024-02-15T05:42:36.081Z,55.47
2024-02-15T05:45:28.051Z,49.97
2024-02-15T05:47:56.339Z,46.73
2024-02-15T05:50:25.171Z,48.13
2024-02-15T05:52:56.249Z,46.03
2024-02-15T05:55:23.652Z,44.23
2024-02-15T05:57:50.442Z,47.53
2024-02-15T06:00:22.328Z,64.87
2024-02-15T06:02:51.729Z,68.10
2024-02-15T06:05:19.230Z,54.30
2024-02-15T06:07:47.853Z,48.33
2024-02-15T06:10:15.844Z,45.23
2024-02-15T06:12:43.526Z,44.90
2024-02-15T06:15:16.750Z,44.70
2024-02-15T06:17:45.531Z,54.35
2024-02-15T06:20:15.207Z,51.23
2024-02-15T06:22:42.622Z,54.60
2024-02-15T06:25:09.768Z,44.17
2024-02-15T06:27:42.439Z,39.30
2024-02-15T06:30:29.411Z,43.47
2024-02-15T06:33:22.713Z,45.10
2024-02-15T06:36:07.832Z,40.47
2024-02-15T06:38:52.894Z,39.65
2024-02-15T06:41:21.520Z,30.70
2024-02-15T06:43:49.406Z,27.07
2024-02-15T06:46:16.091Z,27.65
2024-02-15T06:48:46.264Z,26.35
2024-02-15T06:51:15.679Z,7.65
2024-02-15T06:53:43.055Z,11.15
2024-02-15T06:56:10.655Z,14.10
2024-02-15T06:58:37.809Z,19.80
2024-02-15T07:01:04.704Z,15.93
2024-02-15T07:03:33.545Z,16.48
2024-02-15T07:06:00.412Z,19.10
2024-02-15T07:08:27.137Z,22.20
2024-02-15T07:10:53.825Z,21.80
2024-02-15T07:13:20.578Z,19.92
2024-02-15T07:15:47.694Z,12.05
2024-02-15T07:18:18.298Z,12.18
2024-02-15T07:20:47.141Z,10.43
2024-02-15T07:23:13.804Z,6.85
2024-02-15T07:25:40.614Z,11.55
2024-02-15T07:28:09.298Z,10.77
2024-02-15T07:30:36.037Z,8.23
2024-02-15T07:33:03.660Z,9.68
2024-02-15T07:35:31.721Z,12.20
2024-02-15T07:38:02.825Z,12.18
2024-02-15T07:40:29.757Z,6.88
2024-02-15T07:42:59.319Z,5.45
2024-02-15T07:45:26.284Z,6.00
2024-02-15T07:47:53.142Z,3.63
2024-02-15T07:50:24.238Z,2.60
2024-02-15T07:52:52.400Z,2.35
2024-02-15T07:55:19.185Z,2.47
2024-02-15T07:57:47.607Z,3.00
2024-02-15T08:00:17.601Z,2.50
2024-02-15T08:02:44.889Z,3.53
2024-02-15T08:05:13.444Z,2.88
2024-02-15T08:07:48.790Z,3.05
2024-02-15T08:10:15.758Z,2.90
2024-02-15T08:12:46.982Z,3.00
2024-02-15T08:15:14.097Z,2.38
2024-02-15T08:17:42.657Z,3.10
2024-02-15T08:20:12.016Z,2.30
2024-02-15T08:22:42.433Z,2.53
2024-02-15T08:25:14.459Z,3.08
2024-02-15T08:27:44.234Z,3.65
2024-02-15T08:30:12.816Z,2.83
2024-02-15T08:32:44.208Z,2.53
2024-02-15T08:35:12.501Z,2.58
2024-02-15T08:37:44.674Z,3.55
2024-02-15T08:40:12.859Z,3.13
2024-02-15T08:42:43.805Z,1.80
2024-02-15T08:45:13.220Z,3.10
2024-02-15T08:47:41.747Z,2.85
2024-02-15T08:50:12.909Z,2.28
2024-02-15T08:52:40.886Z,2.22
2024-02-15T08:55:11.622Z,2.70
2024-02-15T08:57:43.252Z,2.35
2024-02-15T09:00:15.106Z,2.63
2024-02-15T09:02:42.571Z,2.58
2024-02-15T09:05:09.758Z,2.42
2024-02-15T09:07:41.016Z,2.15
2024-02-15T09:10:08.914Z,2.10
2024-02-15T09:12:35.871Z,2.55
2024-02-15T09:15:02.763Z,3.08
2024-02-15T09:17:32.462Z,1.95
2024-02-15T09:19:59.996Z,2.17
2024-02-15T09:22:28.489Z,2.00
2024-02-15T09:24:55.211Z,2.72
2024-02-15T09:27:22.468Z,2.90
2024-02-15T09:29:49.180Z,2.50
2024-02-15T09:32:15.953Z,2.15
2024-02-15T09:34:43.246Z,2.20
2024-02-15T09:37:10.233Z,3.50
2024-02-15T09:39:39.186Z,4.80
2024-02-15T09:42:06.100Z,3.38
2024-02-15T09:44:32.875Z,2.10
2024-02-15T09:47:07.230Z,2.80
2024-02-15T09:49:41.806Z,2.38
2024-02-15T09:52:12.905Z,2.10
2024-02-15T09:54:44.636Z,2.50
2024-02-15T09:57:13.063Z,2.17
2024-02-15T09:59:41.300Z,2.28
2024-02-15T10:02:12.201Z,2.22
2024-02-15T10:04:41.281Z,2.20
2024-02-15T10:07:10.407Z,2.50
2024-02-15T10:09:44.115Z,2.53
2024-02-15T10:12:11.080Z,3.22
2024-02-15T10:14:39.382Z,2.70
2024-02-15T10:17:13.215Z,2.50
2024-02-15T10:19:40.546Z,2.15
2024-02-15T10:22:09.543Z,2.95
2024-02-15T10:24:36.741Z,2.70
2024-02-15T10:27:07.722Z,3.40
2024-02-15T10:29:35.423Z,3.20
2024-02-15T10:32:03.434Z,2.00
2024-02-15T10:34:32.037Z,1.88
2024-02-15T10:37:18.071Z,1.67
2024-02-15T10:39:45.024Z,2.88
2024-02-15T10:42:12.681Z,1.95
2024-02-15T10:44:42.319Z,2.00
2024-02-15T10:47:10.307Z,2.45
2024-02-15T10:49:37.688Z,2.00
2024-02-15T10:52:05.743Z,2.10
2024-02-15T10:54:38.417Z,2.63
2024-02-15T10:57:06.818Z,2.38
2024-02-15T10:59:39.375Z,2.30
2024-02-15T11:02:33.099Z,1.65
2024-02-15T11:05:04.814Z,1.75
2024-02-15T11:07:33.327Z,2.40
2024-02-15T11:10:01.040Z,1.60
2024-02-15T11:12:28.803Z,1.63
2024-02-15T11:14:55.659Z,2.00
2024-02-15T11:17:50.486Z,2.22
2024-02-15T11:20:35.774Z,1.95
2024-02-15T11:25:42.951Z,2.03
2024-02-15T11:28:22.168Z,3.20
2024-02-15T11:30:52.547Z,2.35
2024-02-15T11:33:29.219Z,2.70
2024-02-15T11:36:11.760Z,2.63
2024-02-15T11:38:44.967Z,2.30
2024-02-15T11:41:12.523Z,1.85
2024-02-15T11:43:53.420Z,2.00
2024-02-15T11:46:21.137Z,1.75
2024-02-15T11:48:49.344Z,2.10
2024-02-15T11:51:44.474Z,3.08
2024-02-15T11:54:13.196Z,2.92
2024-02-15T11:56:50.506Z,2.70
2024-02-15T11:59:30.358Z,1.80
2024-02-15T12:02:16.254Z,1.90
2024-02-15T12:05:02.502Z,2.17
2024-02-15T12:07:48.570Z,1.80
2024-02-15T12:10:38.758Z,3.15
2024-02-15T12:13:24.353Z,2.63
2024-02-15T12:16:35.616Z,2.08
2024-02-15T12:19:05.033Z,1.85
2024-02-15T12:21:32.597Z,2.83
2024-02-15T12:23:59.462Z,4.85
2024-02-15T12:26:26.855Z,4.28
2024-02-15T12:28:57.519Z,2.80
2024-02-15T12:31:28.008Z,2.40
2024-02-15T12:34:08.571Z,2.65
2024-02-15T12:36:38.891Z,3.22
2024-02-15T12:39:18.261Z,4.78
2024-02-15T12:41:52.568Z,3.28
2024-02-15T12:44:23.745Z,3.05
2024-02-15T12:46:57.597Z,2.67
2024-02-15T12:49:25.351Z,4.95
2024-02-15T12:51:54.945Z,3.20
2024-02-15T12:54:22.680Z,4.97
2024-02-15T12:56:52.963Z,3.80
2024-02-15T12:59:24.978Z,3.63
2024-02-15T13:01:51.735Z,5.45
2024-02-15T13:04:26.538Z,5.70
2024-02-15T13:06:53.524Z,4.22
2024-02-15T13:09:20.432Z,3.83
2024-02-15T13:11:48.392Z,3.65
2024-02-15T13:14:18.230Z,3.50
2024-02-15T13:16:46.036Z,4.70
2024-02-15T13:19:12.852Z,4.72
2024-02-15T13:21:41.100Z,4.00
2024-02-15T13:24:07.887Z,3.50
2024-02-15T13:26:35.489Z,3.97
2024-02-15T13:29:02.195Z,4.80
2024-02-15T13:31:32.329Z,4.40
2024-02-15T13:33:59.153Z,2.90
2024-02-15T13:36:26.739Z,15.88
2024-02-15T13:38:53.500Z,9.80
2024-02-15T13:41:21.213Z,7.75
2024-02-15T13:43:47.876Z,8.40
2024-02-15T13:46:14.933Z,6.20
2024-02-15T13:48:41.921Z,6.30
2024-02-15T13:51:10.907Z,4.78
2024-02-15T13:53:38.406Z,5.55
2024-02-15T13:56:06.582Z,4.35
2024-02-15T13:58:34.184Z,7.43
2024-02-15T14:01:04.451Z,6.88
2024-02-15T14:03:34.087Z,7.10
2024-02-15T14:06:01.619Z,4.25
2024-02-15T14:08:28.350Z,6.20
2024-02-15T14:10:55.137Z,6.50
2024-02-15T14:13:24.012Z,6.47
2024-02-15T14:15:52.389Z,8.52
2024-02-15T14:18:20.853Z,8.02
2024-02-15T14:20:49.167Z,6.00
2024-02-15T14:23:16.466Z,3.33
2024-02-15T14:25:45.878Z,4.85
2024-02-15T14:28:13.521Z,3.00
2024-02-15T14:30:59.589Z,5.18
2024-02-15T14:33:33.335Z,5.97
2024-02-15T14:36:02.170Z,9.07
2024-02-15T14:38:30.346Z,8.32
2024-02-15T14:40:59.541Z,9.23
2024-02-15T14:43:28.552Z,10.05
2024-02-15T14:45:58.048Z,8.00
2024-02-15T14:48:26.100Z,5.60
2024-02-15T14:50:54.334Z,7.20
2024-02-15T14:53:23.876Z,6.55
2024-02-15T14:55:51.604Z,7.43
2024-02-15T14:58:19.421Z,7.30
2024-02-15T15:00:47.916Z,5.30
2024-02-15T15:03:16.037Z,8.02
2024-02-15T15:06:02.000Z,7.07
2024-02-15T15:08:47.959Z,9.30
2024-02-15T15:11:33.652Z,9.27
2024-02-15T15:14:00.478Z,10.05
2024-02-15T15:16:29.478Z,11.45
2024-02-15T15:18:57.576Z,10.25
2024-02-15T15:21:27.254Z,11.07
2024-02-15T15:23:54.323Z,12.68
2024-02-15T15:26:22.303Z,13.30
2024-02-15T15:28:49.776Z,16.20
2024-02-15T15:31:17.225Z,13.85
2024-02-15T15:33:45.836Z,16.95
2024-02-15T15:36:18.402Z,17.60
2024-02-15T15:38:45.269Z,12.05
2024-02-15T15:41:13.346Z,10.32
2024-02-15T15:43:40.371Z,12.40
2024-02-15T15:46:07.116Z,14.88
2024-02-15T15:48:34.789Z,17.65
2024-02-15T15:51:06.497Z,10.63
2024-02-15T15:53:35.449Z,9.82
2024-02-15T15:56:03.819Z,10.95
2024-02-15T15:58:31.209Z,13.95
2024-02-15T16:01:00.078Z,12.07
2024-02-15T16:03:28.084Z,14.57
2024-02-15T16:05:55.509Z,19.35
2024-02-15T16:08:22.910Z,15.40
2024-02-15T16:10:49.678Z,8.95
2024-02-15T16:13:16.937Z,9.68
2024-02-15T16:15:47.511Z,9.55
2024-02-15T16:18:15.586Z,5.90
2024-02-15T16:20:43.828Z,11.45
2024-02-15T16:23:10.733Z,10.30
2024-02-15T16:25:37.446Z,12.60
2024-02-15T16:28:07.544Z,12.13
2024-02-15T16:30:35.456Z,11.63
2024-02-15T16:33:05.564Z,12.55
2024-02-15T16:35:32.443Z,18.30
2024-02-15T16:37:59.254Z,12.23
2024-02-15T16:40:29.106Z,17.33
2024-02-15T16:42:59.017Z,34.55
2024-02-15T16:45:26.205Z,20.38
2024-02-15T16:48:01.610Z,19.38
2024-02-15T16:50:30.693Z,17.10
2024-02-15T16:52:57.935Z,31.65
2024-02-15T16:55:30.329Z,36.88
2024-02-15T16:58:09.742Z,36.35
2024-02-15T17:00:40.236Z,34.15
2024-02-15T17:03:07.480Z,34.00
2024-02-15T17:05:36.780Z,45.28
2024-02-15T17:08:08.856Z,32.03
2024-02-15T17:10:40.693Z,34.17
2024-02-15T17:13:11.326Z,57.45
2024-02-15T17:15:38.204Z,39.17
2024-02-15T17:18:05.433Z,29.80
2024-02-15T17:20:32.550Z,61.72
2024-02-15T17:22:59.262Z,31.23
2024-02-15T17:25:27.204Z,28.65
2024-02-15T17:28:00.155Z,40.92
2024-02-15T17:30:27.903Z,34.50
2024-02-15T17:32:56.497Z,37.88
2024-02-15T17:35:24.545Z,34.45
2024-02-15T17:37:51.352Z,35.47
2024-02-15T17:40:19.404Z,38.40
2024-02-15T17:42:46.511Z,36.35
2024-02-15T17:45:15.699Z,47.42
2024-02-15T17:47:46.095Z,49.40
2024-02-15T17:50:18.511Z,38.58
2024-02-15T17:52:48.895Z,33.50
2024-02-15T17:55:17.274Z,33.50
2024-02-15T17:57:49.073Z,40.13
2024-02-15T18:00:23.205Z,44.08
2024-02-15T18:02:52.718Z,57.70
2024-02-15T18:05:21.440Z,60.28
2024-02-15T18:07:49.405Z,49.75
2024-02-15T18:10:23.407Z,31.67
2024-02-15T18:12:50.145Z,29.00
2024-02-15T18:15:25.777Z,44.55
2024-02-15T18:17:57.751Z,24.63
2024-02-15T18:20:25.404Z,21.30
2024-02-15T18:22:53.435Z,28.33
2024-02-15T18:25:20.367Z,37.13
2024-02-15T18:27:48.149Z,34.35
2024-02-15T18:30:19.876Z,36.58
2024-02-15T18:32:47.859Z,38.58
2024-02-15T18:35:17.263Z,36.67
2024-02-15T18:37:44.814Z,33.10
2024-02-15T18:40:22.806Z,31.30
2024-02-15T18:42:52.781Z,33.47
2024-02-15T18:45:20.373Z,38.80
2024-02-15T18:47:47.467Z,46.30
2024-02-15T18:50:17.040Z,46.87
2024-02-15T18:52:44.663Z,44.07
2024-02-15T18:55:13.483Z,51.25
2024-02-15T18:57:40.492Z,55.50
2024-02-15T19:00:16.312Z,54.20
2024-02-15T19:02:53.356Z,49.70
2024-02-15T19:05:26.483Z,44.27
2024-02-15T19:07:53.398Z,39.95
2024-02-15T19:10:22.166Z,43.80
2024-02-15T19:12:54.901Z,36.07
2024-02-15T19:15:24.946Z,43.92
2024-02-15T19:17:57.485Z,40.08
2024-02-15T19:20:24.217Z,44.53
2024-02-15T19:22:50.921Z,48.63
2024-02-15T19:25:20.060Z,51.07
2024-02-15T19:27:48.104Z,43.75
2024-02-15T19:30:15.183Z,44.40
2024-02-15T19:32:42.631Z,49.50
2024-02-15T19:35:12.438Z,42.08
2024-02-15T19:37:39.296Z,35.53
2024-02-15T19:40:12.618Z,46.43
2024-02-15T19:42:41.310Z,51.50
2024-02-15T19:45:08.617Z,46.57
2024-02-15T19:47:36.941Z,48.17
2024-02-15T19:50:05.234Z,52.03
2024-02-15T19:52:34.039Z,51.37
2024-02-15T19:55:00.873Z,47.97
2024-02-15T19:57:27.727Z,47.23
2024-02-15T19:59:55.403Z,40.33
2024-02-15T20:02:22.868Z,37.37
2024-02-15T20:04:50.600Z,24.90
2024-02-15T20:07:20.069Z,30.33
2024-02-15T20:09:50.981Z,29.50
2024-02-15T20:12:18.183Z,29.53
2024-02-15T20:14:45.057Z,24.97
2024-02-15T20:17:14.739Z,28.35
2024-02-15T20:19:41.785Z,31.03
2024-02-15T20:22:09.752Z,29.60
2024-02-15T20:24:39.616Z,34.43
2024-02-15T20:27:07.491Z,36.70
2024-02-15T20:29:36.591Z,43.73
2024-02-15T20:32:04.686Z,44.80
2024-02-15T20:34:34.725Z,35.50
2024-02-15T20:37:02.653Z,36.50
2024-02-15T20:39:32.629Z,33.97
2024-02-15T20:42:01.458Z,39.70
2024-02-15T20:44:28.235Z,31.93
2024-02-15T20:46:56.941Z,28.03
2024-02-15T20:49:25.432Z,30.47
2024-02-15T20:51:53.756Z,15.07
2024-02-15T20:54:22.357Z,16.70
2024-02-15T20:56:50.792Z,18.67
2024-02-15T20:59:18.812Z,23.13
2024-02-15T21:01:45.651Z,21.43
2024-02-15T21:04:12.714Z,23.83
2024-02-15T21:06:40.816Z,27.47
2024-02-15T21:09:15.355Z,25.57
2024-02-15T21:11:44.649Z,31.33
2024-02-15T21:14:15.555Z,20.03
2024-02-15T21:16:43.281Z,23.93
2024-02-15T21:19:11.042Z,20.97
2024-02-15T21:21:38.557Z,18.70
2024-02-15T21:24:06.948Z,14.50
2024-02-15T21:26:34.642Z,13.90
2024-02-15T21:29:06.006Z,14.20
2024-02-15T21:31:32.909Z,16.33
2024-02-15T21:34:01.284Z,17.27
2024-02-15T21:36:28.232Z,21.13
2024-02-15T21:38:54.992Z,19.07
2024-02-15T21:41:22.529Z,19.87
2024-02-15T21:43:49.382Z,18.07
2024-02-15T21:46:16.541Z,28.43
2024-02-15T21:48:44.382Z,24.87
2024-02-15T21:51:11.244Z,20.77
2024-02-15T21:53:39.628Z,16.10
2024-02-15T21:56:06.553Z,18.23
2024-02-15T21:58:33.839Z,23.30
2024-02-15T22:01:01.536Z,24.93
2024-02-15T22:03:28.482Z,24.60
2024-02-15T22:05:55.385Z,24.60
2024-02-15T22:08:23.593Z,22.70
2024-02-15T22:10:54.082Z,20.73
2024-02-15T22:13:22.454Z,19.53
2024-02-15T22:15:49.145Z,22.77
2024-02-15T22:18:16.119Z,22.87
2024-02-15T22:20:42.941Z,22.97
2024-02-15T22:23:10.529Z,29.57
2024-02-15T22:25:38.644Z,25.57
2024-02-15T22:28:06.244Z,23.70
2024-02-15T22:30:33.700Z,25.03
2024-02-15T22:33:00.878Z,23.80
2024-02-15T22:35:27.697Z,26.43
2024-02-15T22:37:55.624Z,22.57
2024-02-15T22:40:22.508Z,20.63
2024-02-15T22:42:49.293Z,24.07
2024-02-15T22:45:16.152Z,27.20
2024-02-15T22:47:44.267Z,34.43
2024-02-15T22:50:11.566Z,28.40
2024-02-15T22:52:39.498Z,29.33
2024-02-15T22:55:07.171Z,30.10
2024-02-15T22:57:34.050Z,27.57
2024-02-15T23:00:01.327Z,28.30
2024-02-15T23:02:36.519Z,29.23
2024-02-15T23:05:05.449Z,28.70
2024-02-15T23:07:32.725Z,27.53
2024-02-15T23:10:01.553Z,17.30
2024-02-15T23:12:28.362Z,16.87
2024-02-15T23:14:56.440Z,22.30
2024-02-15T23:17:26.328Z,18.47
2024-02-15T23:19:54.228Z,17.03
2024-02-15T23:22:20.945Z,22.50
2024-02-15T23:24:52.164Z,11.63
2024-02-15T23:27:18.988Z,11.60
2024-02-15T23:29:45.721Z,10.57
2024-02-15T23:32:12.541Z,12.87
2024-02-15T23:34:39.981Z,9.93
2024-02-15T23:37:25.201Z,9.10
2024-02-15T23:42:38.187Z,8.20
2024-02-15T23:45:05.462Z,8.70
2024-02-15T23:47:32.267Z,9.43
2024-02-15T23:49:59.062Z,8.43
2024-02-15T23:52:26.247Z,8.40
2024-02-15T23:54:52.915Z,8.80
2024-02-15T23:57:21.885Z,7.80
2024-02-15T23:59:48.895Z,5.80
